sensor_id;sensor_type;location;lat;lon;timestamp;temperature;humidity
23301;DHT22;11819;51.394;12.340;2022-09-09T00:00:16;17.20;83.60
23301;DHT22;11819;51.394;12.340;2022-09-09T00:03:10;17.20;83.50
23301;DHT22;11819;51.394;12.340;2022-09-09T00:09:17;17.10;83.40
23301;DHT22;11819;51.394;12.340;2022-09-09T00:11:52;17.10;83.50
23301;DHT22;11819;51.394;12.340;2022-09-09T00:14:26;17.00;83.30
23301;DHT22;11819;51.394;12.340;2022-09-09T00:16:58;17.00;83.50
23301;DHT22;11819;51.394;12.340;2022-09-09T00:19:36;17.00;83.40
23301;DHT22;11819;51.394;12.340;2022-09-09T00:22:16;17.00;83.50
23301;DHT22;11819;51.394;12.340;2022-09-09T00:24:45;17.00;84.40
23301;DHT22;11819;51.394;12.340;2022-09-09T00:30:19;17.00;83.60
23301;DHT22;11819;51.394;12.340;2022-09-09T00:33:10;17.00;83.60
23301;DHT22;11819;51.394;12.340;2022-09-09T00:35:45;17.00;83.60
23301;DHT22;11819;51.394;12.340;2022-09-09T00:38:19;17.00;83.50
23301;DHT22;11819;51.394;12.340;2022-09-09T00:40:52;16.90;83.40
23301;DHT22;11819;51.394;12.340;2022-09-09T00:52:34;16.90;83.40
23301;DHT22;11819;51.394;12.340;2022-09-09T00:55:07;16.90;83.40
23301;DHT22;11819;51.394;12.340;2022-09-09T00:57:35;16.80;83.30
23301;DHT22;11819;51.394;12.340;2022-09-09T01:00:21;16.80;83.30
23301;DHT22;11819;51.394;12.340;2022-09-09T01:06:02;16.70;83.20
23301;DHT22;11819;51.394;12.340;2022-09-09T01:13:56;16.60;83.30
23301;DHT22;11819;51.394;12.340;2022-09-09T01:16:26;16.60;83.30
23301;DHT22;11819;51.394;12.340;2022-09-09T01:18:54;16.60;83.50
23301;DHT22;11819;51.394;12.340;2022-09-09T01:21:47;16.50;83.40
23301;DHT22;11819;51.394;12.340;2022-09-09T01:24:31;16.50;83.60
23301;DHT22;11819;51.394;12.340;2022-09-09T01:27:18;16.50;84.50
23301;DHT22;11819;51.394;12.340;2022-09-09T01:29:46;16.40;83.70
23301;DHT22;11819;51.394;12.340;2022-09-09T01:32:42;16.40;83.90
23301;DHT22;11819;51.394;12.340;2022-09-09T01:37:54;16.40;84.10
23301;DHT22;11819;51.394;12.340;2022-09-09T01:40:20;16.30;84.10
23301;DHT22;11819;51.394;12.340;2022-09-09T01:42:48;16.30;84.30
23301;DHT22;11819;51.394;12.340;2022-09-09T01:45:14;16.30;84.40
23301;DHT22;11819;51.394;12.340;2022-09-09T01:47:40;16.30;84.50
23301;DHT22;11819;51.394;12.340;2022-09-09T01:50:20;16.20;84.50
23301;DHT22;11819;51.394;12.340;2022-09-09T01:52:49;16.20;84.60
23301;DHT22;11819;51.394;12.340;2022-09-09T01:55:28;16.20;84.70
23301;DHT22;11819;51.394;12.340;2022-09-09T02:00:34;16.20;84.70
23301;DHT22;11819;51.394;12.340;2022-09-09T02:03:11;16.20;84.90
23301;DHT22;11819;51.394;12.340;2022-09-09T02:11:20;16.10;85.00
23301;DHT22;11819;51.394;12.340;2022-09-09T02:14:06;16.10;85.10
23301;DHT22;11819;51.394;12.340;2022-09-09T02:16:50;16.10;85.10
23301;DHT22;11819;51.394;12.340;2022-09-09T02:19:22;16.10;85.20
23301;DHT22;11819;51.394;12.340;2022-09-09T02:22:00;16.10;85.20
23301;DHT22;11819;51.394;12.340;2022-09-09T02:24:29;16.10;85.20
23301;DHT22;11819;51.394;12.340;2022-09-09T02:27:10;16.00;85.20
23301;DHT22;11819;51.394;12.340;2022-09-09T02:29:40;16.00;86.20
23301;DHT22;11819;51.394;12.340;2022-09-09T02:32:23;16.00;85.40
23301;DHT22;11819;51.394;12.340;2022-09-09T02:34:54;16.00;85.40
23301;DHT22;11819;51.394;12.340;2022-09-09T02:37:24;16.00;85.50
23301;DHT22;11819;51.394;12.340;2022-09-09T02:39:55;16.00;85.50
23301;DHT22;11819;51.394;12.340;2022-09-09T02:42:21;16.00;85.60
23301;DHT22;11819;51.394;12.340;2022-09-09T02:44:49;16.00;85.60
23301;DHT22;11819;51.394;12.340;2022-09-09T02:47:35;16.00;85.60
23301;DHT22;11819;51.394;12.340;2022-09-09T02:50:17;15.90;85.60
23301;DHT22;11819;51.394;12.340;2022-09-09T02:53:07;15.90;85.60
23301;DHT22;11819;51.394;12.340;2022-09-09T02:58:23;15.90;85.80
23301;DHT22;11819;51.394;12.340;2022-09-09T03:00:57;15.90;85.80
23301;DHT22;11819;51.394;12.340;2022-09-09T03:03:24;15.90;85.90
23301;DHT22;11819;51.394;12.340;2022-09-09T03:05:51;15.90;85.90
23301;DHT22;11819;51.394;12.340;2022-09-09T03:08:17;15.90;86.00
23301;DHT22;11819;51.394;12.340;2022-09-09T03:10:44;15.80;86.00
23301;DHT22;11819;51.394;12.340;2022-09-09T03:13:12;15.80;86.20
23301;DHT22;11819;51.394;12.340;2022-09-09T03:15:41;15.80;86.20
23301;DHT22;11819;51.394;12.340;2022-09-09T03:18:10;15.80;86.20
23301;DHT22;11819;51.394;12.340;2022-09-09T03:20:36;15.80;86.40
23301;DHT22;11819;51.394;12.340;2022-09-09T03:23:02;15.80;86.40
23301;DHT22;11819;51.394;12.340;2022-09-09T03:25:28;15.80;86.40
23301;DHT22;11819;51.394;12.340;2022-09-09T03:27:54;15.90;87.40
23301;DHT22;11819;51.394;12.340;2022-09-09T03:30:22;15.90;86.40
23301;DHT22;11819;51.394;12.340;2022-09-09T03:32:49;15.90;86.30
23301;DHT22;11819;51.394;12.340;2022-09-09T03:35:16;15.90;86.40
23301;DHT22;11819;51.394;12.340;2022-09-09T03:37:42;15.90;86.40
23301;DHT22;11819;51.394;12.340;2022-09-09T03:40:10;15.90;86.50
23301;DHT22;11819;51.394;12.340;2022-09-09T03:42:36;15.80;86.40
23301;DHT22;11819;51.394;12.340;2022-09-09T03:45:07;15.80;86.50
23301;DHT22;11819;51.394;12.340;2022-09-09T03:47:35;15.80;86.60
23301;DHT22;11819;51.394;12.340;2022-09-09T03:50:06;15.80;86.60
23301;DHT22;11819;51.394;12.340;2022-09-09T03:52:35;15.80;86.70
23301;DHT22;11819;51.394;12.340;2022-09-09T03:55:03;15.80;86.70
23301;DHT22;11819;51.394;12.340;2022-09-09T03:57:29;15.80;86.70
23301;DHT22;11819;51.394;12.340;2022-09-09T03:59:55;15.80;86.60
23301;DHT22;11819;51.394;12.340;2022-09-09T04:02:21;15.80;86.60
23301;DHT22;11819;51.394;12.340;2022-09-09T04:04:47;15.80;86.50
23301;DHT22;11819;51.394;12.340;2022-09-09T04:07:13;15.80;86.60
23301;DHT22;11819;51.394;12.340;2022-09-09T04:09:39;15.80;86.60
23301;DHT22;11819;51.394;12.340;2022-09-09T04:12:05;15.90;86.70
23301;DHT22;11819;51.394;12.340;2022-09-09T04:14:33;15.90;86.60
23301;DHT22;11819;51.394;12.340;2022-09-09T04:16:59;15.90;86.40
23301;DHT22;11819;51.394;12.340;2022-09-09T04:19:25;15.90;86.30
23301;DHT22;11819;51.394;12.340;2022-09-09T04:21:51;15.80;86.40
23301;DHT22;11819;51.394;12.340;2022-09-09T04:24:18;15.80;86.40
23301;DHT22;11819;51.394;12.340;2022-09-09T04:26:44;15.90;86.40
23301;DHT22;11819;51.394;12.340;2022-09-09T04:29:11;15.90;86.40
23301;DHT22;11819;51.394;12.340;2022-09-09T04:31:37;15.80;86.40
23301;DHT22;11819;51.394;12.340;2022-09-09T04:34:11;15.90;86.60
23301;DHT22;11819;51.394;12.340;2022-09-09T04:36:36;15.90;86.40
23301;DHT22;11819;51.394;12.340;2022-09-09T04:39:04;15.90;86.60
23301;DHT22;11819;51.394;12.340;2022-09-09T04:41:31;15.90;86.60
23301;DHT22;11819;51.394;12.340;2022-09-09T04:43:58;15.90;86.60
23301;DHT22;11819;51.394;12.340;2022-09-09T04:46:24;15.90;86.60
23301;DHT22;11819;51.394;12.340;2022-09-09T04:48:51;15.80;86.60
23301;DHT22;11819;51.394;12.340;2022-09-09T04:51:18;15.80;86.60
23301;DHT22;11819;51.394;12.340;2022-09-09T04:53:46;15.80;86.70
23301;DHT22;11819;51.394;12.340;2022-09-09T04:56:15;15.80;86.70
23301;DHT22;11819;51.394;12.340;2022-09-09T04:58:46;15.80;86.70
23301;DHT22;11819;51.394;12.340;2022-09-09T05:01:15;15.80;86.80
23301;DHT22;11819;51.394;12.340;2022-09-09T05:03:44;15.80;86.80
23301;DHT22;11819;51.394;12.340;2022-09-09T05:06:18;15.80;86.80
23301;DHT22;11819;51.394;12.340;2022-09-09T05:08:46;15.80;86.80
23301;DHT22;11819;51.394;12.340;2022-09-09T05:11:21;15.80;86.70
23301;DHT22;11819;51.394;12.340;2022-09-09T05:13:49;15.80;86.70
23301;DHT22;11819;51.394;12.340;2022-09-09T05:16:17;15.80;86.80
23301;DHT22;11819;51.394;12.340;2022-09-09T05:18:44;15.80;86.80
23301;DHT22;11819;51.394;12.340;2022-09-09T05:21:11;15.90;86.90
23301;DHT22;11819;51.394;12.340;2022-09-09T05:23:37;15.90;86.90
23301;DHT22;11819;51.394;12.340;2022-09-09T05:26:03;15.90;86.80
23301;DHT22;11819;51.394;12.340;2022-09-09T05:28:29;15.90;86.80
23301;DHT22;11819;51.394;12.340;2022-09-09T05:31:01;15.90;86.80
23301;DHT22;11819;51.394;12.340;2022-09-09T05:33:31;15.90;86.80
23301;DHT22;11819;51.394;12.340;2022-09-09T05:36:03;15.90;86.80
23301;DHT22;11819;51.394;12.340;2022-09-09T05:38:30;15.90;86.80
23301;DHT22;11819;51.394;12.340;2022-09-09T05:40:57;15.90;86.70
23301;DHT22;11819;51.394;12.340;2022-09-09T05:43:23;15.90;86.70
23301;DHT22;11819;51.394;12.340;2022-09-09T05:45:59;16.00;86.70
23301;DHT22;11819;51.394;12.340;2022-09-09T05:48:28;16.00;86.60
23301;DHT22;11819;51.394;12.340;2022-09-09T05:50:55;16.00;86.50
23301;DHT22;11819;51.394;12.340;2022-09-09T05:53:20;16.00;86.50
23301;DHT22;11819;51.394;12.340;2022-09-09T05:55:46;16.10;86.50
23301;DHT22;11819;51.394;12.340;2022-09-09T05:58:13;16.10;86.50
23301;DHT22;11819;51.394;12.340;2022-09-09T06:00:41;16.10;86.40
23301;DHT22;11819;51.394;12.340;2022-09-09T06:03:06;16.20;86.40
23301;DHT22;11819;51.394;12.340;2022-09-09T06:05:34;16.20;86.30
23301;DHT22;11819;51.394;12.340;2022-09-09T06:08:00;16.30;86.30
23301;DHT22;11819;51.394;12.340;2022-09-09T06:10:26;16.30;86.20
23301;DHT22;11819;51.394;12.340;2022-09-09T06:12:52;16.30;86.20
23301;DHT22;11819;51.394;12.340;2022-09-09T06:15:18;16.30;86.10
23301;DHT22;11819;51.394;12.340;2022-09-09T06:17:43;16.30;86.00
23301;DHT22;11819;51.394;12.340;2022-09-09T06:20:11;16.40;86.00
23301;DHT22;11819;51.394;12.340;2022-09-09T06:22:40;16.40;85.90
23301;DHT22;11819;51.394;12.340;2022-09-09T06:25:08;16.50;85.80
23301;DHT22;11819;51.394;12.340;2022-09-09T06:27:33;16.50;85.70
23301;DHT22;11819;51.394;12.340;2022-09-09T06:29:59;16.50;85.50
23301;DHT22;11819;51.394;12.340;2022-09-09T06:32:24;16.50;85.40
23301;DHT22;11819;51.394;12.340;2022-09-09T06:34:53;16.60;85.40
23301;DHT22;11819;51.394;12.340;2022-09-09T06:37:19;16.70;85.40
23301;DHT22;11819;51.394;12.340;2022-09-09T06:39:48;16.70;85.20
23301;DHT22;11819;51.394;12.340;2022-09-09T06:42:13;16.70;85.10
23301;DHT22;11819;51.394;12.340;2022-09-09T06:44:57;16.80;85.80
23301;DHT22;11819;51.394;12.340;2022-09-09T06:47:43;16.80;84.90
23301;DHT22;11819;51.394;12.340;2022-09-09T06:50:09;16.90;84.90
23301;DHT22;11819;51.394;12.340;2022-09-09T06:52:36;16.90;84.80
23301;DHT22;11819;51.394;12.340;2022-09-09T06:55:03;16.90;84.70
23301;DHT22;11819;51.394;12.340;2022-09-09T06:57:30;17.00;84.60
23301;DHT22;11819;51.394;12.340;2022-09-09T06:59:56;17.00;84.60
23301;DHT22;11819;51.394;12.340;2022-09-09T07:02:22;17.00;84.40
23301;DHT22;11819;51.394;12.340;2022-09-09T07:04:47;17.10;84.40
23301;DHT22;11819;51.394;12.340;2022-09-09T07:07:16;17.10;84.30
23301;DHT22;11819;51.394;12.340;2022-09-09T07:09:43;17.20;84.30
23301;DHT22;11819;51.394;12.340;2022-09-09T07:12:12;17.20;84.20
23301;DHT22;11819;51.394;12.340;2022-09-09T07:14:43;17.30;84.30
23301;DHT22;11819;51.394;12.340;2022-09-09T07:17:09;17.30;84.20
23301;DHT22;11819;51.394;12.340;2022-09-09T07:19:37;17.40;84.20
23301;DHT22;11819;51.394;12.340;2022-09-09T07:22:04;17.40;84.00
23301;DHT22;11819;51.394;12.340;2022-09-09T07:24:32;17.50;83.80
23301;DHT22;11819;51.394;12.340;2022-09-09T07:26:57;17.50;83.70
23301;DHT22;11819;51.394;12.340;2022-09-09T07:29:23;17.60;83.50
23301;DHT22;11819;51.394;12.340;2022-09-09T07:31:50;17.60;83.30
23301;DHT22;11819;51.394;12.340;2022-09-09T07:34:21;17.70;83.20
23301;DHT22;11819;51.394;12.340;2022-09-09T07:36:47;17.80;83.00
23301;DHT22;11819;51.394;12.340;2022-09-09T07:39:16;17.80;82.80
23301;DHT22;11819;51.394;12.340;2022-09-09T07:41:48;17.80;82.60
23301;DHT22;11819;51.394;12.340;2022-09-09T07:44:21;17.90;82.50
23301;DHT22;11819;51.394;12.340;2022-09-09T07:46:50;17.90;82.40
23301;DHT22;11819;51.394;12.340;2022-09-09T07:49:20;18.00;82.20
23301;DHT22;11819;51.394;12.340;2022-09-09T07:51:47;18.00;81.60
23301;DHT22;11819;51.394;12.340;2022-09-09T07:54:16;18.00;81.00
23301;DHT22;11819;51.394;12.340;2022-09-09T07:56:47;18.00;80.90
23301;DHT22;11819;51.394;12.340;2022-09-09T07:59:12;18.10;80.90
23301;DHT22;11819;51.394;12.340;2022-09-09T08:01:42;18.10;80.80
23301;DHT22;11819;51.394;12.340;2022-09-09T08:04:15;18.20;80.80
23301;DHT22;11819;51.394;12.340;2022-09-09T08:06:45;18.20;80.50
23301;DHT22;11819;51.394;12.340;2022-09-09T08:09:12;18.30;80.30
23301;DHT22;11819;51.394;12.340;2022-09-09T08:11:39;18.30;80.20
23301;DHT22;11819;51.394;12.340;2022-09-09T08:14:06;18.30;80.00
23301;DHT22;11819;51.394;12.340;2022-09-09T08:16:36;18.30;79.80
23301;DHT22;11819;51.394;12.340;2022-09-09T08:19:03;18.40;79.70
23301;DHT22;11819;51.394;12.340;2022-09-09T08:21:30;18.40;79.50
23301;DHT22;11819;51.394;12.340;2022-09-09T08:23:59;18.50;79.50
23301;DHT22;11819;51.394;12.340;2022-09-09T08:26:30;18.50;79.30
23301;DHT22;11819;51.394;12.340;2022-09-09T08:28:58;18.50;79.20
23301;DHT22;11819;51.394;12.340;2022-09-09T08:31:27;18.50;79.00
23301;DHT22;11819;51.394;12.340;2022-09-09T08:33:54;18.60;78.90
23301;DHT22;11819;51.394;12.340;2022-09-09T08:36:25;18.60;79.00
23301;DHT22;11819;51.394;12.340;2022-09-09T08:38:55;18.60;79.00
23301;DHT22;11819;51.394;12.340;2022-09-09T08:44:37;18.70;79.20
23301;DHT22;11819;51.394;12.340;2022-09-09T08:50:03;18.80;79.20
23301;DHT22;11819;51.394;12.340;2022-09-09T08:52:53;18.80;79.10
23301;DHT22;11819;51.394;12.340;2022-09-09T08:55:35;18.90;78.90
23301;DHT22;11819;51.394;12.340;2022-09-09T08:58:14;19.00;78.80
23301;DHT22;11819;51.394;12.340;2022-09-09T09:09:26;19.20;78.20
23301;DHT22;11819;51.394;12.340;2022-09-09T09:12:01;19.30;77.90
23301;DHT22;11819;51.394;12.340;2022-09-09T09:14:35;19.40;77.50
23301;DHT22;11819;51.394;12.340;2022-09-09T09:17:07;19.40;77.50
23301;DHT22;11819;51.394;12.340;2022-09-09T09:19:36;19.50;77.10
23301;DHT22;11819;51.394;12.340;2022-09-09T09:25:19;19.60;77.00
23301;DHT22;11819;51.394;12.340;2022-09-09T09:28:00;19.70;76.80
23301;DHT22;11819;51.394;12.340;2022-09-09T09:30:52;19.70;76.30
23301;DHT22;11819;51.394;12.340;2022-09-09T09:36:08;19.90;74.90
23301;DHT22;11819;51.394;12.340;2022-09-09T09:38:36;19.90;74.70
23301;DHT22;11819;51.394;12.340;2022-09-09T09:41:02;20.00;74.70
23301;DHT22;11819;51.394;12.340;2022-09-09T09:43:31;20.00;74.30
23301;DHT22;11819;51.394;12.340;2022-09-09T09:46:00;20.10;73.50
23301;DHT22;11819;51.394;12.340;2022-09-09T09:48:27;20.10;73.10
23301;DHT22;11819;51.394;12.340;2022-09-09T09:50:56;20.20;73.10
23301;DHT22;11819;51.394;12.340;2022-09-09T09:53:31;20.20;72.70
23301;DHT22;11819;51.394;12.340;2022-09-09T09:56:01;20.20;72.40
23301;DHT22;11819;51.394;12.340;2022-09-09T09:58:31;20.30;72.30
23301;DHT22;11819;51.394;12.340;2022-09-09T10:01:00;20.30;72.20
23301;DHT22;11819;51.394;12.340;2022-09-09T10:03:30;20.40;72.40
23301;DHT22;11819;51.394;12.340;2022-09-09T10:05:57;20.40;72.50
23301;DHT22;11819;51.394;12.340;2022-09-09T10:08:25;20.50;72.50
23301;DHT22;11819;51.394;12.340;2022-09-09T10:11:06;20.50;72.40
23301;DHT22;11819;51.394;12.340;2022-09-09T10:13:58;20.50;72.30
23301;DHT22;11819;51.394;12.340;2022-09-09T10:22:05;20.60;71.00
23301;DHT22;11819;51.394;12.340;2022-09-09T10:30:23;20.70;70.90
23301;DHT22;11819;51.394;12.340;2022-09-09T10:32:56;20.70;70.10
23301;DHT22;11819;51.394;12.340;2022-09-09T10:35:35;20.80;69.50
23301;DHT22;11819;51.394;12.340;2022-09-09T10:41:05;20.90;68.30
23301;DHT22;11819;51.394;12.340;2022-09-09T10:52:06;21.00;68.40
23301;DHT22;11819;51.394;12.340;2022-09-09T10:54:58;21.00;68.00
23301;DHT22;11819;51.394;12.340;2022-09-09T10:57:31;21.10;67.30
23301;DHT22;11819;51.394;12.340;2022-09-09T11:00:03;21.10;67.40
23301;DHT22;11819;51.394;12.340;2022-09-09T11:02:32;21.20;67.70
23301;DHT22;11819;51.394;12.340;2022-09-09T11:05:05;21.30;67.70
23301;DHT22;11819;51.394;12.340;2022-09-09T11:07:58;21.40;67.40
23301;DHT22;11819;51.394;12.340;2022-09-09T11:10:39;21.40;66.70
23301;DHT22;11819;51.394;12.340;2022-09-09T11:13:34;21.40;66.50
23301;DHT22;11819;51.394;12.340;2022-09-09T11:18:31;21.40;66.00
23301;DHT22;11819;51.394;12.340;2022-09-09T11:21:03;21.50;67.00
23301;DHT22;11819;51.394;12.340;2022-09-09T11:24:19;21.50;66.20
23301;DHT22;11819;51.394;12.340;2022-09-09T11:26:45;21.50;66.50
23301;DHT22;11819;51.394;12.340;2022-09-09T11:40:23;21.80;65.10
23301;DHT22;11819;51.394;12.340;2022-09-09T11:43:04;21.70;64.60
23301;DHT22;11819;51.394;12.340;2022-09-09T11:45:31;21.70;64.30
23301;DHT22;11819;51.394;12.340;2022-09-09T11:48:00;21.70;64.70
23301;DHT22;11819;51.394;12.340;2022-09-09T11:50:28;21.80;65.00
23301;DHT22;11819;51.394;12.340;2022-09-09T11:53:19;21.90;64.50
23301;DHT22;11819;51.394;12.340;2022-09-09T11:58:41;22.00;63.90
23301;DHT22;11819;51.394;12.340;2022-09-09T12:06:59;22.10;62.90
23301;DHT22;11819;51.394;12.340;2022-09-09T12:09:32;22.20;62.40
23301;DHT22;11819;51.394;12.340;2022-09-09T12:19:41;22.60;61.80
23301;DHT22;11819;51.394;12.340;2022-09-09T12:22:29;22.70;61.40
23301;DHT22;11819;51.394;12.340;2022-09-09T12:25:16;22.80;60.90
23301;DHT22;11819;51.394;12.340;2022-09-09T12:27:58;22.80;60.50
23301;DHT22;11819;51.394;12.340;2022-09-09T12:30:37;22.70;60.20
23301;DHT22;11819;51.394;12.340;2022-09-09T12:33:12;22.80;60.20
23301;DHT22;11819;51.394;12.340;2022-09-09T12:35:42;22.90;60.60
23301;DHT22;11819;51.394;12.340;2022-09-09T12:38:15;22.90;60.90
23301;DHT22;11819;51.394;12.340;2022-09-09T12:40:55;23.00;60.80
23301;DHT22;11819;51.394;12.340;2022-09-09T12:43:23;23.10;60.60
23301;DHT22;11819;51.394;12.340;2022-09-09T12:45:59;23.10;59.90
23301;DHT22;11819;51.394;12.340;2022-09-09T12:48:44;23.20;59.80
23301;DHT22;11819;51.394;12.340;2022-09-09T12:51:29;23.20;59.70
23301;DHT22;11819;51.394;12.340;2022-09-09T12:53:56;23.30;59.80
23301;DHT22;11819;51.394;12.340;2022-09-09T12:56:24;23.40;59.90
23301;DHT22;11819;51.394;12.340;2022-09-09T12:58:54;23.40;59.70
23301;DHT22;11819;51.394;12.340;2022-09-09T13:01:31;23.30;59.50
23301;DHT22;11819;51.394;12.340;2022-09-09T13:03:57;23.40;59.90
23301;DHT22;11819;51.394;12.340;2022-09-09T13:06:29;23.70;60.40
23301;DHT22;11819;51.394;12.340;2022-09-09T13:08:57;24.10;59.90
23301;DHT22;11819;51.394;12.340;2022-09-09T13:11:37;24.50;58.60
23301;DHT22;11819;51.394;12.340;2022-09-09T13:14:03;24.80;57.70
23301;DHT22;11819;51.394;12.340;2022-09-09T13:16:31;25.10;56.50
23301;DHT22;11819;51.394;12.340;2022-09-09T13:19:00;25.30;56.20
23301;DHT22;11819;51.394;12.340;2022-09-09T13:21:34;25.40;55.60
23301;DHT22;11819;51.394;12.340;2022-09-09T13:24:01;25.50;55.10
23301;DHT22;11819;51.394;12.340;2022-09-09T13:26:28;25.50;54.60
23301;DHT22;11819;51.394;12.340;2022-09-09T13:29:09;25.40;54.10
23301;DHT22;11819;51.394;12.340;2022-09-09T13:31:40;25.20;53.80
23301;DHT22;11819;51.394;12.340;2022-09-09T13:34:13;24.90;53.60
23301;DHT22;11819;51.394;12.340;2022-09-09T13:36:39;24.50;53.50
23301;DHT22;11819;51.394;12.340;2022-09-09T13:39:15;24.30;53.80
23301;DHT22;11819;51.394;12.340;2022-09-09T13:41:44;24.00;54.20
23301;DHT22;11819;51.394;12.340;2022-09-09T13:44:31;24.00;54.80
23301;DHT22;11819;51.394;12.340;2022-09-09T13:49:41;23.80;55.30
23301;DHT22;11819;51.394;12.340;2022-09-09T13:52:12;23.70;55.60
23301;DHT22;11819;51.394;12.340;2022-09-09T13:54:39;23.60;55.80
23301;DHT22;11819;51.394;12.340;2022-09-09T13:57:05;23.50;56.00
23301;DHT22;11819;51.394;12.340;2022-09-09T13:59:31;23.40;56.20
23301;DHT22;11819;51.394;12.340;2022-09-09T14:01:57;23.30;56.40
23301;DHT22;11819;51.394;12.340;2022-09-09T14:04:23;23.30;56.60
23301;DHT22;11819;51.394;12.340;2022-09-09T14:06:49;23.40;57.50
23301;DHT22;11819;51.394;12.340;2022-09-09T14:09:16;23.50;56.80
23301;DHT22;11819;51.394;12.340;2022-09-09T14:11:44;23.60;56.70
23301;DHT22;11819;51.394;12.340;2022-09-09T14:14:10;23.80;56.70
23301;DHT22;11819;51.394;12.340;2022-09-09T14:16:36;23.90;56.80
23301;DHT22;11819;51.394;12.340;2022-09-09T14:19:03;24.00;56.50
23301;DHT22;11819;51.394;12.340;2022-09-09T14:21:28;24.10;55.90
23301;DHT22;11819;51.394;12.340;2022-09-09T14:23:54;24.20;55.00
23301;DHT22;11819;51.394;12.340;2022-09-09T14:26:21;24.20;54.20
23301;DHT22;11819;51.394;12.340;2022-09-09T14:28:47;24.20;54.20
23301;DHT22;11819;51.394;12.340;2022-09-09T14:31:13;24.20;54.10
23301;DHT22;11819;51.394;12.340;2022-09-09T14:33:40;24.10;53.90
23301;DHT22;11819;51.394;12.340;2022-09-09T14:36:06;24.00;53.90
23301;DHT22;11819;51.394;12.340;2022-09-09T14:38:34;24.00;53.90
23301;DHT22;11819;51.394;12.340;2022-09-09T14:41:04;23.90;53.80
23301;DHT22;11819;51.394;12.340;2022-09-09T14:43:30;23.70;53.90
23301;DHT22;11819;51.394;12.340;2022-09-09T14:46:04;23.60;54.10
23301;DHT22;11819;51.394;12.340;2022-09-09T14:48:31;23.40;53.90
23301;DHT22;11819;51.394;12.340;2022-09-09T14:50:56;23.30;54.20
23301;DHT22;11819;51.394;12.340;2022-09-09T14:53:22;23.20;54.40
23301;DHT22;11819;51.394;12.340;2022-09-09T14:55:47;23.20;54.60
23301;DHT22;11819;51.394;12.340;2022-09-09T14:58:13;23.30;54.90
23301;DHT22;11819;51.394;12.340;2022-09-09T15:00:39;23.70;55.00
23301;DHT22;11819;51.394;12.340;2022-09-09T15:03:04;24.20;54.90
23301;DHT22;11819;51.394;12.340;2022-09-09T15:05:30;24.80;54.20
23301;DHT22;11819;51.394;12.340;2022-09-09T15:07:57;25.50;53.90
23301;DHT22;11819;51.394;12.340;2022-09-09T15:10:24;26.10;52.90
23301;DHT22;11819;51.394;12.340;2022-09-09T15:12:49;26.60;51.40
23301;DHT22;11819;51.394;12.340;2022-09-09T15:15:15;26.90;50.80
23301;DHT22;11819;51.394;12.340;2022-09-09T15:17:40;27.20;50.00
23301;DHT22;11819;51.394;12.340;2022-09-09T15:20:07;27.30;49.90
23301;DHT22;11819;51.394;12.340;2022-09-09T15:22:33;27.30;49.60
23301;DHT22;11819;51.394;12.340;2022-09-09T15:24:59;27.30;49.10
23301;DHT22;11819;51.394;12.340;2022-09-09T15:27:24;27.20;47.50
23301;DHT22;11819;51.394;12.340;2022-09-09T15:29:50;27.20;47.70
23301;DHT22;11819;51.394;12.340;2022-09-09T15:32:17;27.20;48.30
23301;DHT22;11819;51.394;12.340;2022-09-09T15:34:42;27.20;47.80
23301;DHT22;11819;51.394;12.340;2022-09-09T15:37:10;27.20;47.50
23301;DHT22;11819;51.394;12.340;2022-09-09T15:39:38;27.30;47.60
23301;DHT22;11819;51.394;12.340;2022-09-09T15:42:04;27.40;47.40
23301;DHT22;11819;51.394;12.340;2022-09-09T15:44:37;27.60;47.40
23301;DHT22;11819;51.394;12.340;2022-09-09T15:47:03;27.70;47.20
23301;DHT22;11819;51.394;12.340;2022-09-09T15:49:28;27.80;47.30
23301;DHT22;11819;51.394;12.340;2022-09-09T15:51:56;27.90;47.40
23301;DHT22;11819;51.394;12.340;2022-09-09T15:54:24;27.90;47.10
23301;DHT22;11819;51.394;12.340;2022-09-09T15:56:55;27.90;47.00
23301;DHT22;11819;51.394;12.340;2022-09-09T15:59:25;27.70;46.40
23301;DHT22;11819;51.394;12.340;2022-09-09T16:01:51;27.40;46.30
23301;DHT22;11819;51.394;12.340;2022-09-09T16:04:18;27.00;46.80
23301;DHT22;11819;51.394;12.340;2022-09-09T16:06:53;26.50;47.10
23301;DHT22;11819;51.394;12.340;2022-09-09T16:09:20;26.10;47.50
23301;DHT22;11819;51.394;12.340;2022-09-09T16:11:46;25.60;47.90
23301;DHT22;11819;51.394;12.340;2022-09-09T16:14:13;25.10;48.10
23301;DHT22;11819;51.394;12.340;2022-09-09T16:16:41;24.70;49.40
23301;DHT22;11819;51.394;12.340;2022-09-09T16:19:10;24.40;49.30
23301;DHT22;11819;51.394;12.340;2022-09-09T16:21:39;24.10;49.80
23301;DHT22;11819;51.394;12.340;2022-09-09T16:24:08;23.90;50.40
23301;DHT22;11819;51.394;12.340;2022-09-09T16:26:36;23.60;50.90
23301;DHT22;11819;51.394;12.340;2022-09-09T16:29:02;23.50;51.30
23301;DHT22;11819;51.394;12.340;2022-09-09T16:31:29;23.40;51.70
23301;DHT22;11819;51.394;12.340;2022-09-09T16:33:55;23.20;52.00
23301;DHT22;11819;51.394;12.340;2022-09-09T16:36:23;23.10;52.30
23301;DHT22;11819;51.394;12.340;2022-09-09T16:38:57;23.00;52.60
23301;DHT22;11819;51.394;12.340;2022-09-09T16:41:23;22.90;52.90
23301;DHT22;11819;51.394;12.340;2022-09-09T16:43:54;22.80;53.20
23301;DHT22;11819;51.394;12.340;2022-09-09T16:46:21;22.70;53.50
23301;DHT22;11819;51.394;12.340;2022-09-09T16:48:48;22.60;53.70
23301;DHT22;11819;51.394;12.340;2022-09-09T16:51:20;22.50;53.80
23301;DHT22;11819;51.394;12.340;2022-09-09T16:53:48;22.40;53.90
23301;DHT22;11819;51.394;12.340;2022-09-09T16:56:16;22.40;54.10
23301;DHT22;11819;51.394;12.340;2022-09-09T16:58:49;22.30;54.20
23301;DHT22;11819;51.394;12.340;2022-09-09T17:01:15;22.20;54.30
23301;DHT22;11819;51.394;12.340;2022-09-09T17:03:41;22.20;54.50
23301;DHT22;11819;51.394;12.340;2022-09-09T17:06:11;22.10;54.60
23301;DHT22;11819;51.394;12.340;2022-09-09T17:08:37;22.10;54.80
23301;DHT22;11819;51.394;12.340;2022-09-09T17:11:11;22.00;55.00
23301;DHT22;11819;51.394;12.340;2022-09-09T17:13:39;22.00;55.10
23301;DHT22;11819;51.394;12.340;2022-09-09T17:16:05;21.90;55.40
23301;DHT22;11819;51.394;12.340;2022-09-09T17:18:30;21.90;55.60
23301;DHT22;11819;51.394;12.340;2022-09-09T17:21:03;21.80;55.80
23301;DHT22;11819;51.394;12.340;2022-09-09T17:23:28;21.80;56.00
23301;DHT22;11819;51.394;12.340;2022-09-09T17:25:58;21.70;56.20
23301;DHT22;11819;51.394;12.340;2022-09-09T17:28:23;21.70;56.40